sensor_id;sensor_type;location;lat;lon;timestamp;P1;durP1;ratioP1;P2;durP2;ratioP2
44720;SDS011;30450;52.534;13.398;2023-03-24T00:00:43;9.63;;;2.92;;
44720;SDS011;30450;52.534;13.398;2023-03-24T00:03:09;4.05;;;2.75;;
44720;SDS011;30450;52.534;13.398;2023-03-24T00:05:35;5.07;;;3.15;;
44720;SDS011;30450;52.534;13.398;2023-03-24T00:08:01;4.13;;;2.67;;
44720;SDS011;30450;52.534;13.398;2023-03-24T00:10:28;5.07;;;3.00;;
44720;SDS011;30450;52.534;13.398;2023-03-24T00:12:55;5.68;;;2.70;;
44720;SDS011;30450;52.534;13.398;2023-03-24T00:15:22;4.65;;;3.05;;
44720;SDS011;30450;52.534;13.398;2023-03-24T00:17:48;4.45;;;2.58;;
44720;SDS011;30450;52.534;13.398;2023-03-24T00:20:15;4.80;;;2.88;;
44720;SDS011;30450;52.534;13.398;2023-03-24T00:22:42;3.50;;;2.53;;
44720;SDS011;30450;52.534;13.398;2023-03-24T00:25:13;4.47;;;2.53;;
44720;SDS011;30450;52.534;13.398;2023-03-24T00:27:38;5.20;;;2.78;;
44720;SDS011;30450;52.534;13.398;2023-03-24T00:30:06;4.85;;;2.40;;
44720;SDS011;30450;52.534;13.398;2023-03-24T00:32:33;3.53;;;2.05;;
44720;SDS011;30450;52.534;13.398;2023-03-24T00:35:02;4.38;;;2.88;;
44720;SDS011;30450;52.534;13.398;2023-03-24T00:37:28;7.18;;;2.72;;
44720;SDS011;30450;52.534;13.398;2023-03-24T00:39:54;5.45;;;2.90;;
44720;SDS011;30450;52.534;13.398;2023-03-24T00:42:19;3.83;;;2.50;;
44720;SDS011;30450;52.534;13.398;2023-03-24T00:44:46;3.78;;;2.55;;
44720;SDS011;30450;52.534;13.398;2023-03-24T00:47:12;5.07;;;2.20;;
44720;SDS011;30450;52.534;13.398;2023-03-24T00:49:38;3.55;;;2.60;;
44720;SDS011;30450;52.534;13.398;2023-03-24T00:52:10;3.53;;;2.58;;
44720;SDS011;30450;52.534;13.398;2023-03-24T00:54:36;4.32;;;2.30;;
44720;SDS011;30450;52.534;13.398;2023-03-24T00:57:03;4.18;;;2.22;;
44720;SDS011;30450;52.534;13.398;2023-03-24T00:59:29;3.50;;;2.40;;
44720;SDS011;30450;52.534;13.398;2023-03-24T01:01:55;3.60;;;2.08;;
44720;SDS011;30450;52.534;13.398;2023-03-24T01:04:21;4.72;;;2.10;;
44720;SDS011;30450;52.534;13.398;2023-03-24T01:06:51;2.80;;;2.15;;
44720;SDS011;30450;52.534;13.398;2023-03-24T01:09:16;2.28;;;2.08;;
44720;SDS011;30450;52.534;13.398;2023-03-24T01:11:42;2.67;;;2.00;;
44720;SDS011;30450;52.534;13.398;2023-03-24T01:14:09;3.08;;;2.05;;
44720;SDS011;30450;52.534;13.398;2023-03-24T01:16:34;4.43;;;2.50;;
44720;SDS011;30450;52.534;13.398;2023-03-24T01:19:00;1.88;;;1.55;;
44720;SDS011;30450;52.534;13.398;2023-03-24T01:21:26;3.60;;;1.60;;
44720;SDS011;30450;52.534;13.398;2023-03-24T01:23:52;4.10;;;2.22;;
44720;SDS011;30450;52.534;13.398;2023-03-24T01:26:18;4.57;;;1.90;;
44720;SDS011;30450;52.534;13.398;2023-03-24T01:28:44;2.72;;;2.00;;
44720;SDS011;30450;52.534;13.398;2023-03-24T01:31:10;2.25;;;1.70;;
44720;SDS011;30450;52.534;13.398;2023-03-24T01:33:36;1.75;;;1.60;;
44720;SDS011;30450;52.534;13.398;2023-03-24T01:36:03;4.30;;;2.20;;
44720;SDS011;30450;52.534;13.398;2023-03-24T01:38:29;2.78;;;1.95;;
44720;SDS011;30450;52.534;13.398;2023-03-24T01:40:55;3.28;;;2.25;;
44720;SDS011;30450;52.534;13.398;2023-03-24T01:43:22;3.20;;;1.73;;
44720;SDS011;30450;52.534;13.398;2023-03-24T01:50:53;2.08;;;1.88;;
44720;SDS011;30450;52.534;13.398;2023-03-24T01:53:20;2.08;;;1.80;;
44720;SDS011;30450;52.534;13.398;2023-03-24T01:55:47;2.80;;;1.95;;
44720;SDS011;30450;52.534;13.398;2023-03-24T01:58:13;2.65;;;2.17;;
44720;SDS011;30450;52.534;13.398;2023-03-24T02:00:39;2.80;;;1.88;;
44720;SDS011;30450;52.534;13.398;2023-03-24T02:03:07;4.70;;;1.95;;
44720;SDS011;30450;52.534;13.398;2023-03-24T02:05:35;3.20;;;2.50;;
44720;SDS011;30450;52.534;13.398;2023-03-24T02:10:29;6.43;;;2.33;;
44720;SDS011;30450;52.534;13.398;2023-03-24T02:15:21;2.75;;;2.10;;
44720;SDS011;30450;52.534;13.398;2023-03-24T02:17:56;3.33;;;2.00;;
44720;SDS011;30450;52.534;13.398;2023-03-24T02:25:49;4.07;;;1.90;;
44720;SDS011;30450;52.534;13.398;2023-03-24T02:36:10;4.65;;;2.00;;
44720;SDS011;30450;52.534;13.398;2023-03-24T02:44:10;2.17;;;1.65;;
44720;SDS011;30450;52.534;13.398;2023-03-24T02:46:43;4.05;;;2.00;;
44720;SDS011;30450;52.534;13.398;2023-03-24T02:52:37;2.92;;;2.10;;
44720;SDS011;30450;52.534;13.398;2023-03-24T02:54:56;3.20;;;2.22;;
44720;SDS011;30450;52.534;13.398;2023-03-24T02:57:33;3.22;;;2.28;;
44720;SDS011;30450;52.534;13.398;2023-03-24T03:02:34;3.15;;;2.63;;
44720;SDS011;30450;52.534;13.398;2023-03-24T03:05:06;2.70;;;2.33;;
44720;SDS011;30450;52.534;13.398;2023-03-24T03:07:33;3.38;;;2.25;;
44720;SDS011;30450;52.534;13.398;2023-03-24T03:10:04;3.85;;;1.80;;
44720;SDS011;30450;52.534;13.398;2023-03-24T03:12:33;1.98;;;1.80;;
44720;SDS011;30450;52.534;13.398;2023-03-24T03:15:13;3.20;;;2.20;;
44720;SDS011;30450;52.534;13.398;2023-03-24T03:17:40;2.10;;;1.83;;
44720;SDS011;30450;52.534;13.398;2023-03-24T03:20:12;2.03;;;1.87;;
44720;SDS011;30450;52.534;13.398;2023-03-24T03:22:48;1.88;;;1.77;;
44720;SDS011;30450;52.534;13.398;2023-03-24T03:25:15;3.55;;;2.17;;
44720;SDS011;30450;52.534;13.398;2023-03-24T03:27:43;2.92;;;1.95;;
44720;SDS011;30450;52.534;13.398;2023-03-24T03:30:13;1.95;;;1.75;;
44720;SDS011;30450;52.534;13.398;2023-03-24T03:32:43;2.78;;;2.20;;
44720;SDS011;30450;52.534;13.398;2023-03-24T03:35:16;4.38;;;2.28;;
44720;SDS011;30450;52.534;13.398;2023-03-24T03:37:46;2.90;;;2.20;;
44720;SDS011;30450;52.534;13.398;2023-03-24T03:40:24;2.83;;;2.25;;
44720;SDS011;30450;52.534;13.398;2023-03-24T03:42:52;3.90;;;2.22;;
44720;SDS011;30450;52.534;13.398;2023-03-24T03:45:18;3.90;;;2.22;;
44720;SDS011;30450;52.534;13.398;2023-03-24T03:47:44;4.85;;;2.45;;
44720;SDS011;30450;52.534;13.398;2023-03-24T03:50:10;2.50;;;1.80;;
44720;SDS011;30450;52.534;13.398;2023-03-24T03:52:36;3.88;;;2.10;;
44720;SDS011;30450;52.534;13.398;2023-03-24T03:55:03;2.42;;;2.17;;
44720;SDS011;30450;52.534;13.398;2023-03-24T03:57:30;3.83;;;2.37;;
44720;SDS011;30450;52.534;13.398;2023-03-24T03:59:56;4.35;;;2.55;;
44720;SDS011;30450;52.534;13.398;2023-03-24T04:04:55;3.33;;;2.50;;
44720;SDS011;30450;52.534;13.398;2023-03-24T04:07:36;5.75;;;2.95;;
44720;SDS011;30450;52.534;13.398;2023-03-24T04:15:18;2.67;;;2.40;;
44720;SDS011;30450;52.534;13.398;2023-03-24T04:20:34;3.63;;;2.90;;
44720;SDS011;30450;52.534;13.398;2023-03-24T04:29:01;6.20;;;2.90;;
44720;SDS011;30450;52.534;13.398;2023-03-24T04:31:33;6.45;;;3.17;;
44720;SDS011;30450;52.534;13.398;2023-03-24T04:36:56;5.47;;;3.20;;
44720;SDS011;30450;52.534;13.398;2023-03-24T04:39:27;3.30;;;3.00;;
44720;SDS011;30450;52.534;13.398;2023-03-24T04:41:55;5.13;;;3.40;;
44720;SDS011;30450;52.534;13.398;2023-03-24T04:44:22;4.78;;;3.17;;
44720;SDS011;30450;52.534;13.398;2023-03-24T04:47:08;5.35;;;3.67;;
44720;SDS011;30450;52.534;13.398;2023-03-24T04:49:37;3.53;;;3.17;;
44720;SDS011;30450;52.534;13.398;2023-03-24T04:52:03;3.78;;;2.88;;
44720;SDS011;30450;52.534;13.398;2023-03-24T04:54:29;8.38;;;3.25;;
44720;SDS011;30450;52.534;13.398;2023-03-24T04:56:55;5.35;;;3.88;;
44720;SDS011;30450;52.534;13.398;2023-03-24T04:59:22;5.88;;;3.88;;
44720;SDS011;30450;52.534;13.398;2023-03-24T05:01:48;3.97;;;3.25;;
44720;SDS011;30450;52.534;13.398;2023-03-24T05:04:18;5.53;;;3.42;;
44720;SDS011;30450;52.534;13.398;2023-03-24T05:06:44;6.18;;;3.53;;
44720;SDS011;30450;52.534;13.398;2023-03-24T05:09:17;3.70;;;3.40;;
44720;SDS011;30450;52.534;13.398;2023-03-24T05:11:43;3.38;;;2.90;;
44720;SDS011;30450;52.534;13.398;2023-03-24T05:14:09;5.10;;;3.38;;
44720;SDS011;30450;52.534;13.398;2023-03-24T05:16:34;5.57;;;3.47;;
44720;SDS011;30450;52.534;13.398;2023-03-24T05:19:01;7.07;;;3.40;;
44720;SDS011;30450;52.534;13.398;2023-03-24T05:21:27;9.73;;;3.70;;
44720;SDS011;30450;52.534;13.398;2023-03-24T05:23:53;5.47;;;3.75;;
44720;SDS011;30450;52.534;13.398;2023-03-24T05:26:19;4.95;;;3.60;;
44720;SDS011;30450;52.534;13.398;2023-03-24T05:28:44;5.07;;;3.78;;
44720;SDS011;30450;52.534;13.398;2023-03-24T05:31:10;4.57;;;4.05;;
44720;SDS011;30450;52.534;13.398;2023-03-24T05:33:36;3.35;;;2.92;;
44720;SDS011;30450;52.534;13.398;2023-03-24T05:36:02;4.80;;;3.17;;
44720;SDS011;30450;52.534;13.398;2023-03-24T05:38:28;4.07;;;3.20;;
44720;SDS011;30450;52.534;13.398;2023-03-24T05:40:57;7.10;;;3.53;;
44720;SDS011;30450;52.534;13.398;2023-03-24T05:43:23;5.00;;;3.55;;
44720;SDS011;30450;52.534;13.398;2023-03-24T05:45:49;4.22;;;3.25;;
44720;SDS011;30450;52.534;13.398;2023-03-24T05:48:15;4.57;;;3.63;;
44720;SDS011;30450;52.534;13.398;2023-03-24T05:50:40;4.28;;;3.20;;
44720;SDS011;30450;52.534;13.398;2023-03-24T05:53:06;5.50;;;4.03;;
44720;SDS011;30450;52.534;13.398;2023-03-24T05:55:32;6.38;;;3.13;;
44720;SDS011;30450;52.534;13.398;2023-03-24T05:57:58;4.03;;;2.92;;
44720;SDS011;30450;52.534;13.398;2023-03-24T06:00:27;5.40;;;3.47;;
44720;SDS011;30450;52.534;13.398;2023-03-24T06:02:53;5.78;;;3.40;;
44720;SDS011;30450;52.534;13.398;2023-03-24T06:05:19;5.45;;;3.40;;
44720;SDS011;30450;52.534;13.398;2023-03-24T06:07:44;4.18;;;3.00;;
44720;SDS011;30450;52.534;13.398;2023-03-24T06:10:11;5.20;;;3.25;;
44720;SDS011;30450;52.534;13.398;2023-03-24T06:12:39;5.30;;;4.05;;
44720;SDS011;30450;52.534;13.398;2023-03-24T06:15:06;5.93;;;3.50;;
44720;SDS011;30450;52.534;13.398;2023-03-24T06:17:32;5.82;;;3.30;;
44720;SDS011;30450;52.534;13.398;2023-03-24T06:19:58;3.42;;;2.97;;
44720;SDS011;30450;52.534;13.398;2023-03-24T06:22:27;6.95;;;3.15;;
44720;SDS011;30450;52.534;13.398;2023-03-24T06:24:53;3.75;;;3.25;;
44720;SDS011;30450;52.534;13.398;2023-03-24T06:27:21;6.70;;;3.95;;
44720;SDS011;30450;52.534;13.398;2023-03-24T06:29:50;6.47;;;3.33;;
44720;SDS011;30450;52.534;13.398;2023-03-24T06:32:19;4.18;;;3.20;;
44720;SDS011;30450;52.534;13.398;2023-03-24T06:34:44;4.35;;;3.33;;
44720;SDS011;30450;52.534;13.398;2023-03-24T06:37:13;3.92;;;3.20;;
44720;SDS011;30450;52.534;13.398;2023-03-24T06:39:39;4.22;;;3.40;;
44720;SDS011;30450;52.534;13.398;2023-03-24T06:42:05;4.13;;;3.25;;
44720;SDS011;30450;52.534;13.398;2023-03-24T06:44:30;7.00;;;3.42;;
44720;SDS011;30450;52.534;13.398;2023-03-24T06:46:56;4.68;;;3.63;;
44720;SDS011;30450;52.534;13.398;2023-03-24T06:49:22;5.43;;;3.67;;
44720;SDS011;30450;52.534;13.398;2023-03-24T06:51:48;4.07;;;3.22;;
44720;SDS011;30450;52.534;13.398;2023-03-24T06:54:14;5.07;;;3.42;;
44720;SDS011;30450;52.534;13.398;2023-03-24T06:56:40;3.70;;;3.30;;
44720;SDS011;30450;52.534;13.398;2023-03-24T06:59:06;5.57;;;3.15;;
44720;SDS011;30450;52.534;13.398;2023-03-24T07:01:34;4.70;;;3.80;;
44720;SDS011;30450;52.534;13.398;2023-03-24T07:04:01;6.80;;;3.97;;
44720;SDS011;30450;52.534;13.398;2023-03-24T07:06:27;6.03;;;3.70;;
44720;SDS011;30450;52.534;13.398;2023-03-24T07:08:54;5.60;;;3.60;;
44720;SDS011;30450;52.534;13.398;2023-03-24T07:11:20;6.50;;;3.45;;
44720;SDS011;30450;52.534;13.398;2023-03-24T07:13:46;5.10;;;3.67;;
44720;SDS011;30450;52.534;13.398;2023-03-24T07:16:12;7.03;;;3.47;;
44720;SDS011;30450;52.534;13.398;2023-03-24T07:18:37;5.53;;;3.30;;
44720;SDS011;30450;52.534;13.398;2023-03-24T07:21:03;6.03;;;3.42;;
44720;SDS011;30450;52.534;13.398;2023-03-24T07:23:29;5.05;;;2.95;;
44720;SDS011;30450;52.534;13.398;2023-03-24T07:25:56;4.55;;;3.58;;
44720;SDS011;30450;52.534;13.398;2023-03-24T07:28:22;6.25;;;3.42;;
44720;SDS011;30450;52.534;13.398;2023-03-24T07:30:48;5.00;;;3.58;;
44720;SDS011;30450;52.534;13.398;2023-03-24T07:33:14;5.72;;;3.67;;
44720;SDS011;30450;52.534;13.398;2023-03-24T07:35:40;3.83;;;3.40;;
44720;SDS011;30450;52.534;13.398;2023-03-24T07:38:06;4.75;;;3.38;;
44720;SDS011;30450;52.534;13.398;2023-03-24T07:40:31;3.63;;;2.90;;
44720;SDS011;30450;52.534;13.398;2023-03-24T07:45:25;5.43;;;3.20;;
44720;SDS011;30450;52.534;13.398;2023-03-24T07:47:51;4.90;;;3.10;;
44720;SDS011;30450;52.534;13.398;2023-03-24T07:50:17;3.53;;;3.20;;
44720;SDS011;30450;52.534;13.398;2023-03-24T07:52:45;6.30;;;3.05;;
44720;SDS011;30450;52.534;13.398;2023-03-24T07:55:11;4.78;;;3.42;;
44720;SDS011;30450;52.534;13.398;2023-03-24T07:57:39;3.63;;;3.13;;
44720;SDS011;30450;52.534;13.398;2023-03-24T08:00:05;4.90;;;3.65;;
44720;SDS011;30450;52.534;13.398;2023-03-24T08:02:39;4.97;;;3.28;;
44720;SDS011;30450;52.534;13.398;2023-03-24T08:05:05;7.28;;;3.97;;
44720;SDS011;30450;52.534;13.398;2023-03-24T08:07:31;5.10;;;3.42;;
44720;SDS011;30450;52.534;13.398;2023-03-24T08:09:57;5.75;;;3.17;;
44720;SDS011;30450;52.534;13.398;2023-03-24T08:12:22;4.05;;;3.40;;
44720;SDS011;30450;52.534;13.398;2023-03-24T08:14:48;5.30;;;3.42;;
44720;SDS011;30450;52.534;13.398;2023-03-24T08:17:14;5.18;;;3.00;;
44720;SDS011;30450;52.534;13.398;2023-03-24T08:19:40;6.43;;;2.80;;
44720;SDS011;30450;52.534;13.398;2023-03-24T08:22:06;4.68;;;3.85;;
44720;SDS011;30450;52.534;13.398;2023-03-24T08:24:35;5.20;;;3.92;;
44720;SDS011;30450;52.534;13.398;2023-03-24T08:27:01;5.25;;;3.72;;
44720;SDS011;30450;52.534;13.398;2023-03-24T08:29:31;6.50;;;4.05;;
44720;SDS011;30450;52.534;13.398;2023-03-24T08:31:59;6.43;;;4.32;;
44720;SDS011;30450;52.534;13.398;2023-03-24T08:34:26;4.72;;;3.10;;
44720;SDS011;30450;52.534;13.398;2023-03-24T08:36:51;4.82;;;3.40;;
44720;SDS011;30450;52.534;13.398;2023-03-24T08:39:17;9.20;;;3.85;;
44720;SDS011;30450;52.534;13.398;2023-03-24T08:41:43;3.75;;;3.35;;
44720;SDS011;30450;52.534;13.398;2023-03-24T08:44:09;4.75;;;3.55;;
44720;SDS011;30450;52.534;13.398;2023-03-24T08:46:36;7.60;;;3.88;;
44720;SDS011;30450;52.534;13.398;2023-03-24T08:49:02;8.38;;;3.40;;
44720;SDS011;30450;52.534;13.398;2023-03-24T08:51:28;5.22;;;3.60;;
44720;SDS011;30450;52.534;13.398;2023-03-24T08:54:14;4.85;;;3.80;;
44720;SDS011;30450;52.534;13.398;2023-03-24T08:56:42;5.97;;;3.72;;
44720;SDS011;30450;52.534;13.398;2023-03-24T08:59:08;4.78;;;3.70;;
44720;SDS011;30450;52.534;13.398;2023-03-24T09:01:34;4.70;;;3.53;;
44720;SDS011;30450;52.534;13.398;2023-03-24T09:04:00;4.32;;;3.33;;
44720;SDS011;30450;52.534;13.398;2023-03-24T09:06:26;4.90;;;3.28;;
44720;SDS011;30450;52.534;13.398;2023-03-24T09:08:52;5.65;;;4.07;;
44720;SDS011;30450;52.534;13.398;2023-03-24T09:11:18;6.43;;;3.83;;
44720;SDS011;30450;52.534;13.398;2023-03-24T09:13:44;5.82;;;3.45;;
44720;SDS011;30450;52.534;13.398;2023-03-24T09:16:10;5.03;;;3.35;;
44720;SDS011;30450;52.534;13.398;2023-03-24T09:18:36;5.35;;;3.60;;
44720;SDS011;30450;52.534;13.398;2023-03-24T09:21:02;7.38;;;3.88;;
44720;SDS011;30450;52.534;13.398;2023-03-24T09:23:28;6.18;;;3.97;;
44720;SDS011;30450;52.534;13.398;2023-03-24T09:25:55;4.10;;;3.60;;
44720;SDS011;30450;52.534;13.398;2023-03-24T09:28:21;6.60;;;3.28;;
44720;SDS011;30450;52.534;13.398;2023-03-24T09:30:47;5.93;;;3.72;;
44720;SDS011;30450;52.534;13.398;2023-03-24T09:33:13;4.43;;;3.58;;
44720;SDS011;30450;52.534;13.398;2023-03-24T09:35:39;8.57;;;3.83;;
44720;SDS011;30450;52.534;13.398;2023-03-24T09:38:05;5.75;;;3.65;;
44720;SDS011;30450;52.534;13.398;2023-03-24T09:40:32;7.38;;;3.60;;
44720;SDS011;30450;52.534;13.398;2023-03-24T09:45:48;5.35;;;3.45;;
44720;SDS011;30450;52.534;13.398;2023-03-24T09:51:02;7.20;;;3.67;;
44720;SDS011;30450;52.534;13.398;2023-03-24T09:55:54;5.43;;;3.38;;
44720;SDS011;30450;52.534;13.398;2023-03-24T09:58:20;4.53;;;3.63;;
44720;SDS011;30450;52.534;13.398;2023-03-24T10:00:47;7.13;;;3.58;;
44720;SDS011;30450;52.534;13.398;2023-03-24T10:03:19;4.70;;;4.07;;
44720;SDS011;30450;52.534;13.398;2023-03-24T10:05:54;7.07;;;3.40;;
44720;SDS011;30450;52.534;13.398;2023-03-24T10:08:26;4.25;;;3.22;;
44720;SDS011;30450;52.534;13.398;2023-03-24T10:11:06;3.75;;;3.08;;
44720;SDS011;30450;52.534;13.398;2023-03-24T10:16:10;5.07;;;3.00;;
44720;SDS011;30450;52.534;13.398;2023-03-24T10:18:40;2.75;;;2.55;;
44720;SDS011;30450;52.534;13.398;2023-03-24T10:21:20;3.95;;;2.70;;
44720;SDS011;30450;52.534;13.398;2023-03-24T10:26:34;4.18;;;2.72;;
44720;SDS011;30450;52.534;13.398;2023-03-24T10:31:47;3.35;;;2.35;;
44720;SDS011;30450;52.534;13.398;2023-03-24T10:34:14;4.63;;;2.47;;
44720;SDS011;30450;52.534;13.398;2023-03-24T10:36:40;4.18;;;2.50;;
44720;SDS011;30450;52.534;13.398;2023-03-24T10:39:08;3.65;;;2.40;;
44720;SDS011;30450;52.534;13.398;2023-03-24T10:41:34;3.97;;;2.40;;
44720;SDS011;30450;52.534;13.398;2023-03-24T10:44:01;5.00;;;2.95;;
44720;SDS011;30450;52.534;13.398;2023-03-24T10:46:28;8.68;;;2.85;;
44720;SDS011;30450;52.534;13.398;2023-03-24T10:49:14;3.05;;;2.53;;
44720;SDS011;30450;52.534;13.398;2023-03-24T10:51:44;3.88;;;3.08;;
44720;SDS011;30450;52.534;13.398;2023-03-24T10:54:13;3.35;;;3.05;;
44720;SDS011;30450;52.534;13.398;2023-03-24T10:56:41;3.83;;;2.40;;
44720;SDS011;30450;52.534;13.398;2023-03-24T11:04:28;10.45;;;2.90;;
44720;SDS011;30450;52.534;13.398;2023-03-24T11:07:00;3.85;;;2.67;;
44720;SDS011;30450;52.534;13.398;2023-03-24T11:09:26;4.10;;;2.50;;
44720;SDS011;30450;52.534;13.398;2023-03-24T11:11:52;5.90;;;2.83;;
44720;SDS011;30450;52.534;13.398;2023-03-24T11:14:22;5.35;;;2.45;;
44720;SDS011;30450;52.534;13.398;2023-03-24T11:16:50;3.35;;;2.40;;
44720;SDS011;30450;52.534;13.398;2023-03-24T11:19:17;4.50;;;2.42;;
44720;SDS011;30450;52.534;13.398;2023-03-24T11:21:43;5.22;;;2.42;;
44720;SDS011;30450;52.534;13.398;2023-03-24T11:24:10;3.47;;;2.20;;
44720;SDS011;30450;52.534;13.398;2023-03-24T11:26:38;3.95;;;2.55;;
44720;SDS011;30450;52.534;13.398;2023-03-24T11:29:14;5.38;;;2.45;;
44720;SDS011;30450;52.534;13.398;2023-03-24T11:31:41;2.63;;;2.42;;
44720;SDS011;30450;52.534;13.398;2023-03-24T11:34:16;3.85;;;2.70;;
44720;SDS011;30450;52.534;13.398;2023-03-24T11:36:50;5.40;;;2.35;;
44720;SDS011;30450;52.534;13.398;2023-03-24T11:39:23;5.20;;;2.53;;
44720;SDS011;30450;52.534;13.398;2023-03-24T11:44:23;4.95;;;2.67;;
44720;SDS011;30450;52.534;13.398;2023-03-24T11:46:50;3.13;;;2.70;;
44720;SDS011;30450;52.534;13.398;2023-03-24T11:49:18;4.90;;;2.30;;
44720;SDS011;30450;52.534;13.398;2023-03-24T11:51:45;6.22;;;2.42;;
44720;SDS011;30450;52.534;13.398;2023-03-24T11:54:12;4.18;;;2.75;;
44720;SDS011;30450;52.534;13.398;2023-03-24T11:56:57;5.18;;;2.67;;
44720;SDS011;30450;52.534;13.398;2023-03-24T12:09:43;5.63;;;2.38;;
44720;SDS011;30450;52.534;13.398;2023-03-24T12:17:25;3.10;;;2.10;;
44720;SDS011;30450;52.534;13.398;2023-03-24T12:22:59;3.75;;;2.15;;
44720;SDS011;30450;52.534;13.398;2023-03-24T12:25:44;5.10;;;2.00;;
44720;SDS011;30450;52.534;13.398;2023-03-24T12:30:54;1.88;;;1.77;;
44720;SDS011;30450;52.534;13.398;2023-03-24T12:35:55;4.28;;;1.80;;
44720;SDS011;30450;52.534;13.398;2023-03-24T12:44:00;2.53;;;1.50;;
44720;SDS011;30450;52.534;13.398;2023-03-24T12:49:21;2.10;;;1.40;;
44720;SDS011;30450;52.534;13.398;2023-03-24T12:52:06;3.25;;;1.70;;
44720;SDS011;30450;52.534;13.398;2023-03-24T12:57:11;5.82;;;1.70;;
44720;SDS011;30450;52.534;13.398;2023-03-24T12:59:40;1.70;;;1.52;;
44720;SDS011;30450;52.534;13.398;2023-03-24T13:02:25;3.30;;;1.75;;
44720;SDS011;30450;52.534;13.398;2023-03-24T13:04:53;2.58;;;1.90;;
44720;SDS011;30450;52.534;13.398;2023-03-24T13:07:20;3.97;;;1.98;;
44720;SDS011;30450;52.534;13.398;2023-03-24T13:12:31;3.38;;;1.65;;
44720;SDS011;30450;52.534;13.398;2023-03-24T13:15:05;3.17;;;1.92;;
44720;SDS011;30450;52.534;13.398;2023-03-24T13:17:51;4.45;;;1.60;;
44720;SDS011;30450;52.534;13.398;2023-03-24T13:20:24;2.75;;;1.65;;
44720;SDS011;30450;52.534;13.398;2023-03-24T13:22:51;1.80;;;1.52;;
44720;SDS011;30450;52.534;13.398;2023-03-24T13:27:49;2.25;;;1.75;;
44720;SDS011;30450;52.534;13.398;2023-03-24T13:33:18;2.75;;;1.70;;
44720;SDS011;30450;52.534;13.398;2023-03-24T13:38:37;3.97;;;1.77;;
44720;SDS011;30450;52.534;13.398;2023-03-24T13:41:04;3.58;;;1.65;;
44720;SDS011;30450;52.534;13.398;2023-03-24T13:43:30;3.57;;;1.70;;
44720;SDS011;30450;52.534;13.398;2023-03-24T13:45:59;2.35;;;1.50;;
44720;SDS011;30450;52.534;13.398;2023-03-24T13:50:55;3.83;;;1.80;;
44720;SDS011;30450;52.534;13.398;2023-03-24T13:55:57;1.80;;;1.50;;
44720;SDS011;30450;52.534;13.398;2023-03-24T13:58:24;3.38;;;1.50;;
44720;SDS011;30450;52.534;13.398;2023-03-24T14:01:05;4.40;;;1.30;;
44720;SDS011;30450;52.534;13.398;2023-03-24T14:03:37;4.72;;;1.30;;
44720;SDS011;30450;52.534;13.398;2023-03-24T14:06:04;4.93;;;1.52;;
44720;SDS011;30450;52.534;13.398;2023-03-24T14:11:09;4.88;;;2.25;;
44720;SDS011;30450;52.534;13.398;2023-03-24T14:13:51;6.05;;;2.55;;
44720;SDS011;30450;52.534;13.398;2023-03-24T14:21:26;4.65;;;2.05;;
44720;SDS011;30450;52.534;13.398;2023-03-24T14:23:56;2.50;;;1.75;;
44720;SDS011;30450;52.534;13.398;2023-03-24T14:28:50;3.75;;;1.58;;
44720;SDS011;30450;52.534;13.398;2023-03-24T14:31:26;4.23;;;2.40;;
44720;SDS011;30450;52.534;13.398;2023-03-24T14:38:45;4.88;;;1.90;;
44720;SDS011;30450;52.534;13.398;2023-03-24T14:41:12;3.58;;;1.92;;
44720;SDS011;30450;52.534;13.398;2023-03-24T14:46:07;4.90;;;2.10;;
44720;SDS011;30450;52.534;13.398;2023-03-24T14:49:04;3.45;;;1.98;;
44720;SDS011;30450;52.534;13.398;2023-03-24T14:54:22;2.75;;;1.67;;
44720;SDS011;30450;52.534;13.398;2023-03-24T14:56:50;8.68;;;2.10;;
44720;SDS011;30450;52.534;13.398;2023-03-24T15:02:04;5.47;;;2.00;;
44720;SDS011;30450;52.534;13.398;2023-03-24T15:04:32;4.43;;;1.52;;
44720;SDS011;30450;52.534;13.398;2023-03-24T15:06:58;4.00;;;1.90;;
44720;SDS011;30450;52.534;13.398;2023-03-24T15:09:27;3.25;;;1.75;;
44720;SDS011;30450;52.534;13.398;2023-03-24T15:11:53;4.95;;;1.75;;
44720;SDS011;30450;52.534;13.398;2023-03-24T15:14:22;3.58;;;1.63;;
44720;SDS011;30450;52.534;13.398;2023-03-24T15:16:53;5.50;;;2.20;;
44720;SDS011;30450;52.534;13.398;2023-03-24T15:19:20;2.75;;;1.42;;
44720;SDS011;30450;52.534;13.398;2023-03-24T15:24:32;5.72;;;2.05;;
44720;SDS011;30450;52.534;13.398;2023-03-24T15:29:32;3.38;;;1.67;;
44720;SDS011;30450;52.534;13.398;2023-03-24T15:31:57;3.85;;;1.70;;
44720;SDS011;30450;52.534;13.398;2023-03-24T15:37:32;4.07;;;1.30;;
44720;SDS011;30450;52.534;13.398;2023-03-24T15:39:38;7.30;;;1.95;;
44720;SDS011;30450;52.534;13.398;2023-03-24T15:42:06;6.78;;;2.22;;
44720;SDS011;30450;52.534;13.398;2023-03-24T15:44:35;4.20;;;1.83;;
44720;SDS011;30450;52.534;13.398;2023-03-24T15:47:01;5.78;;;2.00;;
44720;SDS011;30450;52.534;13.398;2023-03-24T15:49:31;4.70;;;1.88;;
44720;SDS011;30450;52.534;13.398;2023-03-24T15:52:01;4.97;;;1.70;;
44720;SDS011;30450;52.534;13.398;2023-03-24T15:54:30;4.43;;;1.65;;
44720;SDS011;30450;52.534;13.398;2023-03-24T15:57:10;5.88;;;1.92;;
44720;SDS011;30450;52.534;13.398;2023-03-24T15:59:41;3.25;;;1.55;;
44720;SDS011;30450;52.534;13.398;2023-03-24T16:02:10;4.15;;;1.52;;
44720;SDS011;30450;52.534;13.398;2023-03-24T16:04:37;6.15;;;1.90;;
44720;SDS011;30450;52.534;13.398;2023-03-24T16:07:05;6.25;;;1.90;;
44720;SDS011;30450;52.534;13.398;2023-03-24T16:09:34;5.68;;;1.88;;
44720;SDS011;30450;52.534;13.398;2023-03-24T16:12:04;5.32;;;1.58;;
44720;SDS011;30450;52.534;13.398;2023-03-24T16:14:32;6.28;;;1.80;;
44720;SDS011;30450;52.534;13.398;2023-03-24T16:17:00;4.78;;;1.98;;
44720;SDS011;30450;52.534;13.398;2023-03-24T16:19:27;6.43;;;1.75;;
44720;SDS011;30450;52.534;13.398;2023-03-24T16:21:53;3.92;;;2.03;;
44720;SDS011;30450;52.534;13.398;2023-03-24T16:24:19;4.35;;;1.48;;
44720;SDS011;30450;52.534;13.398;2023-03-24T16:26:45;4.15;;;1.70;;
44720;SDS011;30450;52.534;13.398;2023-03-24T16:29:18;4.57;;;2.00;;
44720;SDS011;30450;52.534;13.398;2023-03-24T16:31:44;8.77;;;1.95;;
44720;SDS011;30450;52.534;13.398;2023-03-24T16:34:17;5.70;;;2.10;;
44720;SDS011;30450;52.534;13.398;2023-03-24T16:36:46;6.00;;;1.58;;
44720;SDS011;30450;52.534;13.398;2023-03-24T16:39:13;4.65;;;1.70;;
44720;SDS011;30450;52.534;13.398;2023-03-24T16:41:43;5.57;;;1.80;;
44720;SDS011;30450;52.534;13.398;2023-03-24T16:44:09;8.48;;;2.35;;
44720;SDS011;30450;52.534;13.398;2023-03-24T16:46:35;4.82;;;2.30;;
44720;SDS011;30450;52.534;13.398;2023-03-24T16:49:02;7.18;;;2.42;;
44720;SDS011;30450;52.534;13.398;2023-03-24T16:51:28;5.67;;;1.87;;
44720;SDS011;30450;52.534;13.398;2023-03-24T16:53:54;6.85;;;2.30;;
44720;SDS011;30450;52.534;13.398;2023-03-24T16:56:21;7.22;;;2.53;;
44720;SDS011;30450;52.534;13.398;2023-03-24T16:58:47;9.18;;;2.40;;
44720;SDS011;30450;52.534;13.398;2023-03-24T17:01:32;4.82;;;2.40;;
44720;SDS011;30450;52.534;13.398;2023-03-24T17:04:00;7.53;;;1.95;;
44720;SDS011;30450;52.534;13.398;2023-03-24T17:06:27;8.60;;;2.15;;
44720;SDS011;30450;52.534;13.398;2023-03-24T17:08:53;11.88;;;2.65;;
44720;SDS011;30450;52.534;13.398;2023-03-24T17:11:25;11.52;;;3.10;;
44720;SDS011;30450;52.534;13.398;2023-03-24T17:13:52;7.35;;;2.75;;
44720;SDS011;30450;52.534;13.398;2023-03-24T17:16:18;5.22;;;2.17;;
44720;SDS011;30450;52.534;13.398;2023-03-24T17:18:45;6.32;;;2.45;;
44720;SDS011;30450;52.534;13.398;2023-03-24T17:21:14;9.65;;;3.15;;